KON weather

Kontum Airport
Kontum, Kon Tum Province, Vietnam

Public forecast

Using degrees Celsius for public forecast. Weather courtesy of forecast.io.

METAR (pilot weather report)

Closest report is Da Nang International Airport, 102.2 nm (189.4 km) N. Retrieved 2019/04/24 17:30 UTC (0 seconds ago):

VVDN 241730Z 23001KT 9999 FEW017 25/23 Q1007 NOSIG

TAF (pilot weather forecast)

Closest forecast is Da Nang International Airport, 102.2 nm (189.4 km) N. Retrieved 2019/04/24 12:39 UTC (5 hours ago):

TAF TAF VVDN 241100Z 2412/2512 21004KT 8000 FEW017 BECMG 2503/2504 12010KT TEMPO 2509/2512 TS FEW013 FEW017CB SCT060